Terminal Aerodrome Forecast
Issued by NWS

Home | Current Version | Previous Version | Text Only | Print | Product List | Glossary Off
Versions: 1 2 3 4 5 6 7 8 9 10 11 12 13 14 15 16 17 18 19 20 21 22 23 24 25 26 27 28 29 30 31 32 33 34 35 36 37 38 39 40 41 42

000
FTUS43 KLOT 241600 AAC
TAFORD
TAF AMD
KORD 241657Z 2417/2518 25023G33KT 3SM -SN BKN009 OVC013
      TEMPO 2417/2418 1/2SM SN OVC009
     FM242200 26021G32KT 5SM -SN BKN010 OVC020
     FM250100 26018G28KT P6SM -SHSN SCT015 OVC022
     FM250600 27013KT P6SM BKN025 OVC035=

USA.gov is the U.S. government's official web portal to all federal, state and local government web resources and services.